sensor_id;sensor_type;location;lat;lon;timestamp;P1;durP1;ratioP1;P2;durP2;ratioP2
28796;SDS011;24974;54.444;18.560;2022-10-17T06:30:47;12.85;;;6.40;;
28796;SDS011;24974;54.444;18.560;2022-10-17T06:33:18;13.45;;;6.18;;
28796;SDS011;24974;54.444;18.560;2022-10-17T06:35:51;9.88;;;5.75;;
28796;SDS011;24974;54.444;18.560;2022-10-17T06:38:23;9.40;;;6.30;;
28796;SDS011;24974;54.444;18.560;2022-10-17T06:41:11;15.60;;;7.53;;
28796;SDS011;24974;54.444;18.560;2022-10-17T06:43:44;14.48;;;7.15;;
28796;SDS011;24974;54.444;18.560;2022-10-17T06:46:39;7.05;;;5.68;;
28796;SDS011;24974;54.444;18.560;2022-10-17T06:49:12;8.77;;;5.88;;
28796;SDS011;24974;54.444;18.560;2022-10-17T06:51:46;8.82;;;5.55;;
28796;SDS011;24974;54.444;18.560;2022-10-17T06:54:18;11.65;;;5.60;;
28796;SDS011;24974;54.444;18.560;2022-10-17T06:57:08;8.15;;;5.22;;
28796;SDS011;24974;54.444;18.560;2022-10-17T07:00:03;9.48;;;5.75;;
28796;SDS011;24974;54.444;18.560;2022-10-17T07:02:45;14.40;;;5.65;;
28796;SDS011;24974;54.444;18.560;2022-10-17T07:05:16;18.58;;;6.43;;
28796;SDS011;24974;54.444;18.560;2022-10-17T07:07:48;17.35;;;6.43;;
28796;SDS011;24974;54.444;18.560;2022-10-17T07:10:19;13.88;;;6.60;;
28796;SDS011;24974;54.444;18.560;2022-10-17T07:12:50;15.75;;;6.97;;
28796;SDS011;24974;54.444;18.560;2022-10-17T07:15:21;15.52;;;6.97;;
28796;SDS011;24974;54.444;18.560;2022-10-17T07:17:52;11.65;;;6.32;;
28796;SDS011;24974;54.444;18.560;2022-10-17T07:20:23;13.10;;;6.07;;
28796;SDS011;24974;54.444;18.560;2022-10-17T07:22:54;10.07;;;5.70;;
28796;SDS011;24974;54.444;18.560;2022-10-17T07:25:25;7.75;;;4.78;;
28796;SDS011;24974;54.444;18.560;2022-10-17T07:28:01;14.15;;;5.20;;
28796;SDS011;24974;54.444;18.560;2022-10-17T07:30:32;9.80;;;3.97;;
28796;SDS011;24974;54.444;18.560;2022-10-17T07:33:11;14.70;;;4.78;;
28796;SDS011;24974;54.444;18.560;2022-10-17T07:35:42;9.20;;;4.20;;
28796;SDS011;24974;54.444;18.560;2022-10-17T07:38:14;13.65;;;4.82;;
28796;SDS011;24974;54.444;18.560;2022-10-17T07:40:45;8.52;;;4.53;;
28796;SDS011;24974;54.444;18.560;2022-10-17T07:43:23;10.13;;;4.53;;
28796;SDS011;24974;54.444;18.560;2022-10-17T07:45:54;13.02;;;4.75;;
28796;SDS011;24974;54.444;18.560;2022-10-17T07:48:25;11.32;;;4.18;;
28796;SDS011;24974;54.444;18.560;2022-10-17T07:51:00;11.27;;;4.40;;
28796;SDS011;24974;54.444;18.560;2022-10-17T07:53:35;12.80;;;4.60;;
28796;SDS011;24974;54.444;18.560;2022-10-17T07:56:09;8.88;;;3.95;;
28796;SDS011;24974;54.444;18.560;2022-10-17T07:58:41;12.65;;;4.82;;
28796;SDS011;24974;54.444;18.560;2022-10-17T08:01:12;18.08;;;5.05;;
28796;SDS011;24974;54.444;18.560;2022-10-17T08:03:44;14.13;;;5.18;;
28796;SDS011;24974;54.444;18.560;2022-10-17T08:06:16;11.77;;;4.85;;
28796;SDS011;24974;54.444;18.560;2022-10-17T08:08:47;12.43;;;5.10;;
28796;SDS011;24974;54.444;18.560;2022-10-17T08:11:18;11.80;;;5.38;;
28796;SDS011;24974;54.444;18.560;2022-10-17T08:13:51;14.68;;;4.55;;
28796;SDS011;24974;54.444;18.560;2022-10-17T08:16:22;11.35;;;5.18;;
28796;SDS011;24974;54.444;18.560;2022-10-17T08:18:53;18.33;;;6.25;;
28796;SDS011;24974;54.444;18.560;2022-10-17T08:21:24;12.98;;;4.40;;
28796;SDS011;24974;54.444;18.560;2022-10-17T08:23:55;8.60;;;4.20;;
28796;SDS011;24974;54.444;18.560;2022-10-17T08:26:26;10.82;;;5.35;;
28796;SDS011;24974;54.444;18.560;2022-10-17T08:28:57;10.10;;;4.57;;
28796;SDS011;24974;54.444;18.560;2022-10-17T08:31:28;12.52;;;4.30;;
28796;SDS011;24974;54.444;18.560;2022-10-17T08:33:59;14.25;;;4.20;;
28796;SDS011;24974;54.444;18.560;2022-10-17T08:36:30;12.13;;;4.43;;
28796;SDS011;24974;54.444;18.560;2022-10-17T08:39:01;13.80;;;4.93;;
28796;SDS011;24974;54.444;18.560;2022-10-17T08:41:49;13.63;;;4.68;;
28796;SDS011;24974;54.444;18.560;2022-10-17T08:47:36;13.00;;;4.32;;
28796;SDS011;24974;54.444;18.560;2022-10-17T08:50:11;8.98;;;3.28;;
28796;SDS011;24974;54.444;18.560;2022-10-17T08:52:54;13.82;;;4.15;;
28796;SDS011;24974;54.444;18.560;2022-10-17T08:55:36;11.85;;;3.63;;
28796;SDS011;24974;54.444;18.560;2022-10-17T08:58:16;13.57;;;4.03;;
28796;SDS011;24974;54.444;18.560;2022-10-17T09:19:04;17.00;;;2.83;;
28796;SDS011;24974;54.444;18.560;2022-10-17T09:30:24;5.72;;;2.38;;
28796;SDS011;24974;54.444;18.560;2022-10-17T09:33:16;8.45;;;3.25;;
28796;SDS011;24974;54.444;18.560;2022-10-17T09:35:48;7.53;;;2.78;;
28796;SDS011;24974;54.444;18.560;2022-10-17T09:38:22;11.10;;;3.28;;
28796;SDS011;24974;54.444;18.560;2022-10-17T09:40:56;9.40;;;2.90;;
28796;SDS011;24974;54.444;18.560;2022-10-17T09:43:29;9.35;;;3.67;;
28796;SDS011;24974;54.444;18.560;2022-10-17T09:46:07;9.95;;;2.90;;
28796;SDS011;24974;54.444;18.560;2022-10-17T09:49:00;6.22;;;3.15;;
28796;SDS011;24974;54.444;18.560;2022-10-17T09:51:47;7.63;;;3.05;;
28796;SDS011;24974;54.444;18.560;2022-10-17T09:54:19;5.72;;;3.00;;
28796;SDS011;24974;54.444;18.560;2022-10-17T09:56:56;11.68;;;2.97;;
28796;SDS011;24974;54.444;18.560;2022-10-17T09:59:33;6.57;;;2.50;;
28796;SDS011;24974;54.444;18.560;2022-10-17T10:07:37;11.48;;;3.38;;
28796;SDS011;24974;54.444;18.560;2022-10-17T10:13:17;8.73;;;3.05;;
28796;SDS011;24974;54.444;18.560;2022-10-17T10:15:49;6.57;;;2.88;;
28796;SDS011;24974;54.444;18.560;2022-10-17T10:23:43;7.57;;;3.10;;
28796;SDS011;24974;54.444;18.560;2022-10-17T10:29:32;8.23;;;4.03;;
28796;SDS011;24974;54.444;18.560;2022-10-17T10:35:26;7.57;;;3.25;;
28796;SDS011;24974;54.444;18.560;2022-10-17T10:37:49;10.45;;;3.42;;
28796;SDS011;24974;54.444;18.560;2022-10-17T10:42:59;8.35;;;3.10;;
28796;SDS011;24974;54.444;18.560;2022-10-17T10:51:10;8.48;;;3.83;;
28796;SDS011;24974;54.444;18.560;2022-10-17T10:56:50;7.45;;;4.63;;
28796;SDS011;24974;54.444;18.560;2022-10-17T10:59:38;6.80;;;3.35;;
28796;SDS011;24974;54.444;18.560;2022-10-17T11:03:06;8.07;;;3.83;;
28796;SDS011;24974;54.444;18.560;2022-10-17T11:08:14;10.32;;;3.72;;
28796;SDS011;24974;54.444;18.560;2022-10-17T11:11:12;7.63;;;3.70;;
28796;SDS011;24974;54.444;18.560;2022-10-17T11:16:56;10.10;;;4.65;;
28796;SDS011;24974;54.444;18.560;2022-10-17T11:22:46;7.90;;;4.43;;
28796;SDS011;24974;54.444;18.560;2022-10-17T11:27:52;7.13;;;4.95;;
28796;SDS011;24974;54.444;18.560;2022-10-17T11:30:23;8.38;;;4.85;;
28796;SDS011;24974;54.444;18.560;2022-10-17T11:32:58;10.73;;;5.50;;
28796;SDS011;24974;54.444;18.560;2022-10-17T11:35:34;8.02;;;5.38;;
28796;SDS011;24974;54.444;18.560;2022-10-17T11:40:48;7.35;;;4.90;;
28796;SDS011;24974;54.444;18.560;2022-10-17T11:43:28;11.50;;;5.03;;
28796;SDS011;24974;54.444;18.560;2022-10-17T11:46:04;10.25;;;5.60;;
28796;SDS011;24974;54.444;18.560;2022-10-17T11:51:17;10.32;;;5.43;;
28796;SDS011;24974;54.444;18.560;2022-10-17T11:53:55;8.60;;;5.88;;
28796;SDS011;24974;54.444;18.560;2022-10-17T11:56:47;8.77;;;6.35;;
28796;SDS011;24974;54.444;18.560;2022-10-17T12:02:14;10.00;;;6.53;;
28796;SDS011;24974;54.444;18.560;2022-10-17T12:05:20;13.93;;;7.22;;
28796;SDS011;24974;54.444;18.560;2022-10-17T12:08:02;14.85;;;7.88;;
28796;SDS011;24974;54.444;18.560;2022-10-17T12:10:49;9.60;;;7.47;;
28796;SDS011;24974;54.444;18.560;2022-10-17T12:24:40;16.48;;;8.75;;
28796;SDS011;24974;54.444;18.560;2022-10-17T12:27:47;16.48;;;9.75;;
28796;SDS011;24974;54.444;18.560;2022-10-17T12:30:19;14.38;;;9.65;;
28796;SDS011;24974;54.444;18.560;2022-10-17T12:52:22;10.13;;;8.23;;
28796;SDS011;24974;54.444;18.560;2022-10-17T12:57:55;10.40;;;8.45;;
28796;SDS011;24974;54.444;18.560;2022-10-17T13:00:34;11.98;;;8.57;;
28796;SDS011;24974;54.444;18.560;2022-10-17T13:03:32;12.90;;;9.15;;
28796;SDS011;24974;54.444;18.560;2022-10-17T13:06:04;12.48;;;9.13;;
28796;SDS011;24974;54.444;18.560;2022-10-17T13:08:38;10.32;;;9.07;;
28796;SDS011;24974;54.444;18.560;2022-10-17T13:11:12;11.25;;;9.23;;
28796;SDS011;24974;54.444;18.560;2022-10-17T13:13:48;13.43;;;9.82;;
28796;SDS011;24974;54.444;18.560;2022-10-17T13:16:32;14.93;;;9.43;;
28796;SDS011;24974;54.444;18.560;2022-10-17T13:19:10;11.20;;;8.30;;
28796;SDS011;24974;54.444;18.560;2022-10-17T13:24:34;13.07;;;8.38;;
28796;SDS011;24974;54.444;18.560;2022-10-17T13:30:20;9.93;;;7.85;;
28796;SDS011;24974;54.444;18.560;2022-10-17T13:32:54;11.07;;;7.10;;
28796;SDS011;24974;54.444;18.560;2022-10-17T13:38:05;11.05;;;8.45;;
28796;SDS011;24974;54.444;18.560;2022-10-17T13:40:40;13.30;;;9.00;;
28796;SDS011;24974;54.444;18.560;2022-10-17T13:43:16;14.85;;;9.45;;
28796;SDS011;24974;54.444;18.560;2022-10-17T13:48:24;13.75;;;10.20;;
28796;SDS011;24974;54.444;18.560;2022-10-17T13:51:01;11.73;;;10.50;;
28796;SDS011;24974;54.444;18.560;2022-10-17T13:53:35;16.90;;;10.77;;
28796;SDS011;24974;54.444;18.560;2022-10-17T13:58:46;14.70;;;11.18;;
28796;SDS011;24974;54.444;18.560;2022-10-17T14:01:19;15.25;;;11.90;;
28796;SDS011;24974;54.444;18.560;2022-10-17T14:03:51;14.05;;;11.38;;
28796;SDS011;24974;54.444;18.560;2022-10-17T14:06:23;12.82;;;11.43;;
28796;SDS011;24974;54.444;18.560;2022-10-17T14:08:57;21.88;;;11.93;;
28796;SDS011;24974;54.444;18.560;2022-10-17T14:14:15;16.75;;;11.73;;
28796;SDS011;24974;54.444;18.560;2022-10-17T14:16:49;15.23;;;11.23;;
28796;SDS011;24974;54.444;18.560;2022-10-17T14:19:32;15.43;;;11.13;;
28796;SDS011;24974;54.444;18.560;2022-10-17T14:24:50;14.90;;;10.73;;
28796;SDS011;24974;54.444;18.560;2022-10-17T14:30:05;13.32;;;9.80;;
28796;SDS011;24974;54.444;18.560;2022-10-17T14:32:57;16.55;;;9.73;;
28796;SDS011;24974;54.444;18.560;2022-10-17T14:35:32;13.63;;;9.52;;
28796;SDS011;24974;54.444;18.560;2022-10-17T14:38:04;10.68;;;9.05;;
28796;SDS011;24974;54.444;18.560;2022-10-17T14:40:36;12.50;;;9.88;;
28796;SDS011;24974;54.444;18.560;2022-10-17T14:43:13;20.73;;;10.30;;
28796;SDS011;24974;54.444;18.560;2022-10-17T14:45:50;15.02;;;10.82;;
28796;SDS011;24974;54.444;18.560;2022-10-17T14:48:22;12.13;;;10.20;;
28796;SDS011;24974;54.444;18.560;2022-10-17T14:56:56;19.92;;;11.00;;
28796;SDS011;24974;54.444;18.560;2022-10-17T14:59:26;14.30;;;10.25;;
28796;SDS011;24974;54.444;18.560;2022-10-17T15:01:57;16.70;;;10.88;;
28796;SDS011;24974;54.444;18.560;2022-10-17T15:04:28;12.63;;;10.45;;
28796;SDS011;24974;54.444;18.560;2022-10-17T15:06:59;11.25;;;10.02;;
28796;SDS011;24974;54.444;18.560;2022-10-17T15:09:30;11.77;;;10.27;;
28796;SDS011;24974;54.444;18.560;2022-10-17T15:12:01;14.32;;;10.65;;
28796;SDS011;24974;54.444;18.560;2022-10-17T15:14:36;14.15;;;11.18;;
28796;SDS011;24974;54.444;18.560;2022-10-17T15:17:14;14.57;;;11.43;;
28796;SDS011;24974;54.444;18.560;2022-10-17T15:19:48;14.38;;;11.88;;
28796;SDS011;24974;54.444;18.560;2022-10-17T15:22:19;15.57;;;11.48;;
28796;SDS011;24974;54.444;18.560;2022-10-17T15:24:50;14.07;;;12.65;;
28796;SDS011;24974;54.444;18.560;2022-10-17T15:27:22;13.27;;;11.82;;
28796;SDS011;24974;54.444;18.560;2022-10-17T15:29:55;15.20;;;12.43;;
28796;SDS011;24974;54.444;18.560;2022-10-17T15:32:26;16.73;;;12.35;;
28796;SDS011;24974;54.444;18.560;2022-10-17T15:34:57;15.32;;;12.68;;
28796;SDS011;24974;54.444;18.560;2022-10-17T15:37:28;18.10;;;12.65;;
28796;SDS011;24974;54.444;18.560;2022-10-17T15:40:03;14.57;;;12.40;;
28796;SDS011;24974;54.444;18.560;2022-10-17T15:42:35;15.15;;;12.48;;
28796;SDS011;24974;54.444;18.560;2022-10-17T15:45:07;16.05;;;12.50;;
28796;SDS011;24974;54.444;18.560;2022-10-17T15:47:39;19.83;;;13.88;;
28796;SDS011;24974;54.444;18.560;2022-10-17T15:50:14;19.33;;;13.55;;
28796;SDS011;24974;54.444;18.560;2022-10-17T15:52:46;17.10;;;13.60;;
28796;SDS011;24974;54.444;18.560;2022-10-17T15:55:20;16.52;;;13.70;;
28796;SDS011;24974;54.444;18.560;2022-10-17T15:57:51;21.10;;;13.38;;
28796;SDS011;24974;54.444;18.560;2022-10-17T16:00:23;20.58;;;14.38;;
28796;SDS011;24974;54.444;18.560;2022-10-17T16:02:54;42.90;;;16.98;;
28796;SDS011;24974;54.444;18.560;2022-10-17T16:05:24;29.70;;;14.75;;
28796;SDS011;24974;54.444;18.560;2022-10-17T16:07:55;24.75;;;16.58;;
28796;SDS011;24974;54.444;18.560;2022-10-17T16:10:27;24.55;;;17.45;;
28796;SDS011;24974;54.444;18.560;2022-10-17T16:12:58;20.85;;;16.42;;
28796;SDS011;24974;54.444;18.560;2022-10-17T16:15:29;19.58;;;17.15;;
28796;SDS011;24974;54.444;18.560;2022-10-17T16:17:59;25.95;;;18.08;;
28796;SDS011;24974;54.444;18.560;2022-10-17T16:20:30;22.70;;;16.73;;
28796;SDS011;24974;54.444;18.560;2022-10-17T16:23:01;26.67;;;18.30;;
28796;SDS011;24974;54.444;18.560;2022-10-17T16:25:33;26.77;;;18.27;;
28796;SDS011;24974;54.444;18.560;2022-10-17T16:28:04;25.00;;;18.23;;
28796;SDS011;24974;54.444;18.560;2022-10-17T16:30:39;23.52;;;18.63;;
28796;SDS011;24974;54.444;18.560;2022-10-17T16:33:12;23.85;;;19.67;;
28796;SDS011;24974;54.444;18.560;2022-10-17T16:35:42;24.98;;;19.27;;
28796;SDS011;24974;54.444;18.560;2022-10-17T16:38:15;25.08;;;19.98;;
28796;SDS011;24974;54.444;18.560;2022-10-17T16:40:46;24.27;;;19.92;;
28796;SDS011;24974;54.444;18.560;2022-10-17T16:43:17;29.10;;;21.70;;
28796;SDS011;24974;54.444;18.560;2022-10-17T16:45:48;26.73;;;21.13;;
28796;SDS011;24974;54.444;18.560;2022-10-17T16:48:19;25.60;;;21.48;;
28796;SDS011;24974;54.444;18.560;2022-10-17T16:50:50;25.85;;;21.48;;
28796;SDS011;24974;54.444;18.560;2022-10-17T16:53:20;25.75;;;21.98;;
28796;SDS011;24974;54.444;18.560;2022-10-17T16:56:01;31.88;;;22.33;;
28796;SDS011;24974;54.444;18.560;2022-10-17T16:58:32;28.80;;;21.55;;
28796;SDS011;24974;54.444;18.560;2022-10-17T17:01:04;30.25;;;23.67;;
28796;SDS011;24974;54.444;18.560;2022-10-17T17:03:37;32.28;;;23.75;;
28796;SDS011;24974;54.444;18.560;2022-10-17T17:06:14;28.50;;;23.95;;
28796;SDS011;24974;54.444;18.560;2022-10-17T17:08:47;36.47;;;25.08;;
28796;SDS011;24974;54.444;18.560;2022-10-17T17:11:18;27.88;;;23.90;;
28796;SDS011;24974;54.444;18.560;2022-10-17T17:13:50;30.52;;;25.73;;
28796;SDS011;24974;54.444;18.560;2022-10-17T17:16:24;32.22;;;26.67;;
28796;SDS011;24974;54.444;18.560;2022-10-17T17:19:04;31.10;;;25.05;;
28796;SDS011;24974;54.444;18.560;2022-10-17T17:21:36;28.30;;;23.92;;
28796;SDS011;24974;54.444;18.560;2022-10-17T17:24:07;32.15;;;25.40;;
28796;SDS011;24974;54.444;18.560;2022-10-17T17:26:38;31.80;;;25.95;;
28796;SDS011;24974;54.444;18.560;2022-10-17T17:29:10;33.22;;;26.38;;
28796;SDS011;24974;54.444;18.560;2022-10-17T17:31:41;32.92;;;26.60;;
28796;SDS011;24974;54.444;18.560;2022-10-17T17:34:12;30.88;;;26.23;;
28796;SDS011;24974;54.444;18.560;2022-10-17T17:36:43;33.58;;;26.55;;
28796;SDS011;24974;54.444;18.560;2022-10-17T17:39:14;33.95;;;27.55;;
28796;SDS011;24974;54.444;18.560;2022-10-17T17:41:45;32.88;;;26.85;;
28796;SDS011;24974;54.444;18.560;2022-10-17T17:44:16;39.92;;;26.58;;
28796;SDS011;24974;54.444;18.560;2022-10-17T17:46:47;32.92;;;27.10;;
28796;SDS011;24974;54.444;18.560;2022-10-17T17:49:18;32.70;;;26.35;;
28796;SDS011;24974;54.444;18.560;2022-10-17T17:51:49;31.83;;;26.73;;
28796;SDS011;24974;54.444;18.560;2022-10-17T17:54:19;30.58;;;26.17;;
28796;SDS011;24974;54.444;18.560;2022-10-17T17:56:50;30.00;;;24.95;;
28796;SDS011;24974;54.444;18.560;2022-10-17T17:59:21;34.60;;;24.48;;
28796;SDS011;24974;54.444;18.560;2022-10-17T18:01:52;27.60;;;23.63;;
28796;SDS011;24974;54.444;18.560;2022-10-17T18:04:23;30.08;;;24.13;;
28796;SDS011;24974;54.444;18.560;2022-10-17T18:06:54;28.63;;;23.48;;
28796;SDS011;24974;54.444;18.560;2022-10-17T18:09:25;30.27;;;24.33;;
28796;SDS011;24974;54.444;18.560;2022-10-17T18:11:55;29.10;;;23.48;;
28796;SDS011;24974;54.444;18.560;2022-10-17T18:14:26;27.35;;;22.42;;
28796;SDS011;24974;54.444;18.560;2022-10-17T18:16:57;28.20;;;23.27;;
28796;SDS011;24974;54.444;18.560;2022-10-17T18:19:28;30.40;;;23.17;;
28796;SDS011;24974;54.444;18.560;2022-10-17T18:21:59;28.25;;;22.80;;
28796;SDS011;24974;54.444;18.560;2022-10-17T18:24:29;26.85;;;22.10;;
28796;SDS011;24974;54.444;18.560;2022-10-17T18:27:00;28.25;;;22.48;;
28796;SDS011;24974;54.444;18.560;2022-10-17T18:29:31;28.70;;;22.25;;
28796;SDS011;24974;54.444;18.560;2022-10-17T18:32:02;26.10;;;21.45;;
28796;SDS011;24974;54.444;18.560;2022-10-17T18:34:33;27.80;;;22.00;;
28796;SDS011;24974;54.444;18.560;2022-10-17T18:37:04;26.23;;;20.73;;
28796;SDS011;24974;54.444;18.560;2022-10-17T18:39:35;23.10;;;20.58;;
28796;SDS011;24974;54.444;18.560;2022-10-17T18:42:05;26.05;;;21.90;;
28796;SDS011;24974;54.444;18.560;2022-10-17T18:44:36;25.73;;;21.30;;
28796;SDS011;24974;54.444;18.560;2022-10-17T18:47:07;25.48;;;20.60;;
28796;SDS011;24974;54.444;18.560;2022-10-17T18:49:38;25.20;;;20.40;;
28796;SDS011;24974;54.444;18.560;2022-10-17T18:52:09;23.35;;;19.95;;
28796;SDS011;24974;54.444;18.560;2022-10-17T18:54:40;25.75;;;21.23;;
28796;SDS011;24974;54.444;18.560;2022-10-17T18:57:11;34.88;;;21.20;;
28796;SDS011;24974;54.444;18.560;2022-10-17T18:59:42;24.27;;;19.70;;
28796;SDS011;24974;54.444;18.560;2022-10-17T19:02:13;29.13;;;20.48;;
28796;SDS011;24974;54.444;18.560;2022-10-17T19:04:43;25.10;;;21.08;;
28796;SDS011;24974;54.444;18.560;2022-10-17T19:07:14;24.70;;;19.98;;
28796;SDS011;24974;54.444;18.560;2022-10-17T19:09:48;26.20;;;20.40;;
28796;SDS011;24974;54.444;18.560;2022-10-17T19:12:18;26.05;;;20.75;;
28796;SDS011;24974;54.444;18.560;2022-10-17T19:14:49;25.13;;;21.45;;
28796;SDS011;24974;54.444;18.560;2022-10-17T19:17:22;27.73;;;21.77;;
28796;SDS011;24974;54.444;18.560;2022-10-17T19:19:52;25.13;;;21.33;;
28796;SDS011;24974;54.444;18.560;2022-10-17T19:22:24;29.27;;;21.15;;
28796;SDS011;24974;54.444;18.560;2022-10-17T19:24:55;31.65;;;22.20;;
28796;SDS011;24974;54.444;18.560;2022-10-17T19:27:25;27.08;;;21.00;;
28796;SDS011;24974;54.444;18.560;2022-10-17T19:29:56;24.23;;;21.45;;
28796;SDS011;24974;54.444;18.560;2022-10-17T19:32:27;27.45;;;22.10;;
28796;SDS011;24974;54.444;18.560;2022-10-17T19:34:58;26.92;;;23.30;;
28796;SDS011;24974;54.444;18.560;2022-10-17T19:37:29;26.20;;;21.48;;
28796;SDS011;24974;54.444;18.560;2022-10-17T19:40:00;30.17;;;22.65;;
28796;SDS011;24974;54.444;18.560;2022-10-17T19:42:31;26.77;;;21.88;;
28796;SDS011;24974;54.444;18.560;2022-10-17T19:45:04;29.13;;;22.23;;
28796;SDS011;24974;54.444;18.560;2022-10-17T19:47:36;30.50;;;22.20;;
28796;SDS011;24974;54.444;18.560;2022-10-17T19:50:07;34.63;;;22.50;;
28796;SDS011;24974;54.444;18.560;2022-10-17T19:52:38;33.90;;;21.40;;
28796;SDS011;24974;54.444;18.560;2022-10-17T19:55:09;25.63;;;21.42;;
28796;SDS011;24974;54.444;18.560;2022-10-17T19:57:40;26.83;;;21.20;;
28796;SDS011;24974;54.444;18.560;2022-10-17T20:00:11;27.23;;;21.05;;
28796;SDS011;24974;54.444;18.560;2022-10-17T20:02:42;25.15;;;20.92;;
28796;SDS011;24974;54.444;18.560;2022-10-17T20:05:13;28.27;;;21.58;;
28796;SDS011;24974;54.444;18.560;2022-10-17T20:07:43;27.65;;;20.30;;
28796;SDS011;24974;54.444;18.560;2022-10-17T20:10:14;24.73;;;21.02;;
28796;SDS011;24974;54.444;18.560;2022-10-17T20:12:45;23.83;;;20.83;;
28796;SDS011;24974;54.444;18.560;2022-10-17T20:23:38;25.58;;;20.85;;
28796;SDS011;24974;54.444;18.560;2022-10-17T20:26:14;22.80;;;19.73;;
28796;SDS011;24974;54.444;18.560;2022-10-17T20:28:47;23.80;;;19.90;;
28796;SDS011;24974;54.444;18.560;2022-10-17T20:31:18;29.80;;;19.67;;
28796;SDS011;24974;54.444;18.560;2022-10-17T20:33:53;24.50;;;18.30;;
28796;SDS011;24974;54.444;18.560;2022-10-17T20:36:26;25.40;;;19.73;;
28796;SDS011;24974;54.444;18.560;2022-10-17T20:38:57;26.85;;;18.88;;
28796;SDS011;24974;54.444;18.560;2022-10-17T20:41:28;22.88;;;18.55;;
28796;SDS011;24974;54.444;18.560;2022-10-17T20:44:00;22.10;;;18.38;;
28796;SDS011;24974;54.444;18.560;2022-10-17T20:46:31;27.30;;;19.08;;
28796;SDS011;24974;54.444;18.560;2022-10-17T20:49:02;23.33;;;18.77;;
28796;SDS011;24974;54.444;18.560;2022-10-17T20:51:37;22.10;;;18.05;;
28796;SDS011;24974;54.444;18.560;2022-10-17T20:54:08;24.92;;;17.98;;
28796;SDS011;24974;54.444;18.560;2022-10-17T20:56:39;23.40;;;17.98;;
28796;SDS011;24974;54.444;18.560;2022-10-17T20:59:11;27.00;;;18.25;;
28796;SDS011;24974;54.444;18.560;2022-10-17T21:01:44;24.30;;;18.02;;
